Time;durP1;ratioP1;P1;durP2;ratioP2;P2;SDS_P1;SDS_P2;PMS_P1;PMS_P2;Temp;Humidity;BMP_temperature;BMP_pressure;BME280_temperature;BME280_humidity;BME280_pressure;Samples;Min_cycle;Max_cycle;Signal;HPM_P1;HPM_P2
2021/05/19 00:00:48;;;;;;;1.90;0.90;;;14.50;55.50;;;;;;5012333;28;20498;-71
2021/05/19 00:03:14;;;;;;;4.25;0.63;;;14.50;55.50;;;;;;5013564;28;20068;-72
2021/05/19 00:05:40;;;;;;;1.70;0.77;;;14.50;55.70;;;;;;5012267;28;20053;-71
2021/05/19 00:08:09;;;;;;;1.98;0.88;;;14.50;55.70;;;;;;5025607;28;20028;-70
2021/05/19 00:10:39;;;;;;;1.95;0.88;;;14.50;55.80;;;;;;5031811;28;20550;-70
2021/05/19 00:13:05;;;;;;;2.72;0.65;;;14.50;55.70;;;;;;5014214;28;20589;-72
2021/05/19 00:15:32;;;;;;;1.60;0.68;;;14.50;55.70;;;;;;5013236;28;20431;-71
2021/05/19 00:18:02;;;;;;;3.03;0.60;;;14.50;55.60;;;;;;5013284;28;20025;-71
2021/05/19 00:20:28;;;;;;;2.33;0.60;;;14.50;55.60;;;;;;5013546;28;20441;-71
2021/05/19 00:22:53;;;;;;;2.45;0.50;;;14.50;55.50;;;;;;5013176;28;20054;-71
2021/05/19 00:25:19;;;;;;;2.20;0.70;;;14.50;55.60;;;;;;5013249;28;20108;-72
2021/05/19 00:27:45;;;;;;;1.38;0.80;;;14.50;55.80;;;;;;5012993;28;20029;-71
2021/05/19 00:30:16;;;;;;;1.80;0.60;;;14.50;55.50;;;;;;5012935;28;20529;-71
2021/05/19 00:32:42;;;;;;;1.17;0.80;;;14.50;55.50;;;;;;5013060;28;20026;-70
2021/05/19 00:35:08;;;;;;;1.55;0.80;;;14.50;55.70;;;;;;5030537;28;20017;-72
2021/05/19 00:37:34;;;;;;;1.00;0.60;;;14.50;55.60;;;;;;5032617;28;20030;-71
2021/05/19 00:40:00;;;;;;;0.70;0.52;;;14.60;55.50;;;;;;5031801;28;20078;-71
2021/05/19 00:42:26;;;;;;;1.00;0.65;;;14.50;55.40;;;;;;5032380;28;20105;-73
2021/05/19 00:44:51;;;;;;;1.23;0.52;;;14.60;55.40;;;;;;5031580;28;20025;-71
2021/05/19 00:47:35;;;;;;;3.95;0.88;;;14.60;55.40;;;;;;5032348;28;20053;-72
2021/05/19 00:50:01;;;;;;;0.88;0.65;;;14.60;55.40;;;;;;5032160;28;20049;-72
2021/05/19 00:52:27;;;;;;;3.08;0.50;;;14.60;55.40;;;;;;5032272;28;20018;-73
2021/05/19 00:54:53;;;;;;;1.05;0.60;;;14.60;55.30;;;;;;5032277;28;20530;-70
2021/05/19 00:57:22;;;;;;;1.42;0.70;;;14.60;55.30;;;;;;5032276;28;20104;-72
2021/05/19 00:59:48;;;;;;;3.50;0.80;;;14.70;55.40;;;;;;5032213;28;20499;-72
2021/05/19 01:02:14;;;;;;;1.55;0.93;;;14.60;55.20;;;;;;5032131;28;20474;-72
2021/05/19 01:04:40;;;;;;;2.03;0.98;;;14.60;55.40;;;;;;5016903;28;20034;-71
2021/05/19 01:07:26;;;;;;;1.40;0.63;;;14.60;55.40;;;;;;5017979;28;20031;-71
2021/05/19 01:09:52;;;;;;;1.52;0.70;;;14.60;55.50;;;;;;5032080;28;20440;-71
2021/05/19 01:12:21;;;;;;;0.85;0.63;;;14.60;55.60;;;;;;5031241;28;20025;-71
2021/05/19 01:14:49;;;;;;;0.98;0.70;;;14.60;55.80;;;;;;5021173;28;20026;-71
2021/05/19 01:17:16;;;;;;;5.88;0.70;;;14.60;55.70;;;;;;5011362;28;20029;-71
2021/05/19 01:19:44;;;;;;;0.85;0.60;;;14.60;55.60;;;;;;5011975;28;20391;-71
2021/05/19 01:22:12;;;;;;;3.30;0.65;;;14.60;55.70;;;;;;5027956;28;20227;-72
2021/05/19 01:24:40;;;;;;;1.90;0.50;;;14.60;55.90;;;;;;5031873;28;20022;-71
2021/05/19 01:27:07;;;;;;;3.15;0.68;;;14.60;55.80;;;;;;5031779;28;20088;-73
2021/05/19 01:29:34;;;;;;;2.35;0.80;;;14.60;55.80;;;;;;5032133;28;20093;-72
2021/05/19 01:32:00;;;;;;;1.38;0.70;;;14.60;55.70;;;;;;5031624;28;20021;-70
2021/05/19 01:34:26;;;;;;;0.70;0.60;;;14.60;55.80;;;;;;5018840;28;20084;-72
2021/05/19 01:36:51;;;;;;;2.15;0.98;;;14.60;55.80;;;;;;5015095;28;20025;-72
2021/05/19 01:39:18;;;;;;;1.77;0.55;;;14.60;55.80;;;;;;5030413;28;20025;-71
2021/05/19 01:41:46;;;;;;;2.30;0.82;;;14.60;55.60;;;;;;5031779;28;20472;-71
2021/05/19 01:44:18;;;;;;;1.33;0.73;;;14.60;56.00;;;;;;5030052;28;20032;-70
2021/05/19 01:46:46;;;;;;;1.05;0.60;;;14.60;56.10;;;;;;5031820;28;20492;-72
2021/05/19 01:49:17;;;;;;;1.00;0.80;;;14.60;56.20;;;;;;5031546;28;20128;-72
2021/05/19 01:51:44;;;;;;;1.13;0.63;;;14.60;56.20;;;;;;5032688;28;20502;-73
2021/05/19 01:54:12;;;;;;;1.50;0.95;;;14.60;56.10;;;;;;5035506;28;20025;-72
2021/05/19 01:56:39;;;;;;;2.60;0.70;;;14.60;56.10;;;;;;5034269;28;20483;-71
2021/05/19 01:59:06;;;;;;;1.02;0.60;;;14.60;56.20;;;;;;5034124;28;20059;-71
2021/05/19 02:01:33;;;;;;;0.80;0.50;;;14.60;56.10;;;;;;5034032;28;20033;-71
2021/05/19 02:04:10;;;;;;;3.38;0.60;;;14.60;56.10;;;;;;5026479;28;20078;-72
2021/05/19 02:06:51;;;;;;;1.67;0.98;;;14.60;56.10;;;;;;5017057;28;20093;-72
2021/05/19 02:09:18;;;;;;;1.02;0.50;;;14.60;55.90;;;;;;5034098;28;20085;-71
2021/05/19 02:11:45;;;;;;;1.33;0.60;;;14.60;55.70;;;;;;5026834;28;20033;-73
2021/05/19 02:14:12;;;;;;;0.52;0.52;;;14.60;55.70;;;;;;5014008;28;20026;-72
2021/05/19 02:16:38;;;;;;;1.58;0.70;;;14.60;55.70;;;;;;5015496;28;20425;-72
2021/05/19 02:19:10;;;;;;;1.25;0.50;;;14.60;55.60;;;;;;5015437;28;20097;-72
2021/05/19 02:21:45;;;;;;;0.60;0.50;;;14.70;55.70;;;;;;5015273;28;20059;-70
2021/05/19 02:24:14;;;;;;;4.55;0.63;;;14.70;55.60;;;;;;5015283;28;20041;-71
2021/05/19 02:26:41;;;;;;;1.55;0.65;;;14.70;55.60;;;;;;5015229;28;20036;-72
2021/05/19 02:29:09;;;;;;;1.15;0.63;;;14.70;55.50;;;;;;5013933;28;20137;-72
2021/05/19 02:31:35;;;;;;;2.28;0.50;;;14.70;55.40;;;;;;5015055;28;20026;-71
2021/05/19 02:34:01;;;;;;;1.00;0.50;;;14.70;55.40;;;;;;5015270;28;20483;-73
2021/05/19 02:36:27;;;;;;;1.27;0.40;;;14.70;55.40;;;;;;5014809;28;20041;-71
2021/05/19 02:38:53;;;;;;;5.63;0.77;;;14.70;55.40;;;;;;5014947;28;20021;-72
2021/05/19 02:41:20;;;;;;;1.25;0.50;;;14.70;55.40;;;;;;5013643;28;20054;-73
2021/05/19 02:43:46;;;;;;;1.88;0.80;;;14.70;55.30;;;;;;5014923;28;20049;-73
2021/05/19 02:46:12;;;;;;;1.25;0.60;;;14.80;55.40;;;;;;5014743;28;20096;-71
2021/05/19 02:48:39;;;;;;;5.15;0.60;;;14.70;55.40;;;;;;5014876;28;20053;-71
2021/05/19 02:51:05;;;;;;;1.60;0.68;;;14.70;55.20;;;;;;5014678;28;20046;-72
2021/05/19 02:53:31;;;;;;;1.33;0.55;;;14.80;55.40;;;;;;5014716;28;20026;-72
2021/05/19 02:55:57;;;;;;;1.42;0.68;;;14.70;55.20;;;;;;5025489;28;20099;-71
2021/05/19 02:58:23;;;;;;;1.38;0.60;;;14.70;55.10;;;;;;5034284;28;20025;-71
2021/05/19 03:00:49;;;;;;;1.23;0.77;;;14.70;55.10;;;;;;5032974;28;20387;-71
2021/05/19 03:03:15;;;;;;;3.22;0.65;;;14.70;55.20;;;;;;5031103;28;20471;-71
2021/05/19 03:05:41;;;;;;;0.85;0.63;;;14.70;55.40;;;;;;5014416;28;20030;-73
2021/05/19 03:08:07;;;;;;;1.83;1.10;;;14.70;55.90;;;;;;5014342;28;20065;-72
2021/05/19 03:10:36;;;;;;;1.00;0.60;;;14.70;55.30;;;;;;5026510;28;20114;-71
2021/05/19 03:13:03;;;;;;;0.38;0.38;;;14.70;55.20;;;;;;5016627;28;20068;-71
2021/05/19 03:15:29;;;;;;;1.08;0.50;;;14.70;55.20;;;;;;5011523;28;20434;-71
2021/05/19 03:17:55;;;;;;;0.73;0.40;;;14.70;55.20;;;;;;5023325;28;20109;-71
2021/05/19 03:20:20;;;;;;;1.05;0.75;;;14.70;55.10;;;;;;5033759;28;20026;-70
2021/05/19 03:22:46;;;;;;;2.38;0.60;;;14.70;55.40;;;;;;5030084;28;20115;-70
2021/05/19 03:25:12;;;;;;;1.30;0.70;;;14.70;55.30;;;;;;5013972;28;20029;-72
2021/05/19 03:27:38;;;;;;;0.65;0.60;;;14.70;55.20;;;;;;5014008;28;20045;-72
2021/05/19 03:30:08;;;;;;;0.73;0.50;;;14.80;55.20;;;;;;5013948;28;20475;-72
2021/05/19 03:32:34;;;;;;;1.42;0.70;;;14.80;55.10;;;;;;5013622;28;20023;-71
2021/05/19 03:34:59;;;;;;;1.25;0.70;;;14.80;55.00;;;;;;5014307;28;20033;-72
2021/05/19 03:37:25;;;;;;;3.83;0.90;;;14.80;55.00;;;;;;5013947;28;20029;-70
2021/05/19 03:39:51;;;;;;;1.15;0.80;;;14.80;55.00;;;;;;5014858;28;20022;-70
2021/05/19 03:42:17;;;;;;;2.08;0.80;;;14.80;54.90;;;;;;5013412;28;20084;-72
2021/05/19 03:44:43;;;;;;;3.67;1.00;;;14.80;55.00;;;;;;5014653;28;20076;-72
2021/05/19 03:47:10;;;;;;;1.75;0.90;;;14.80;55.00;;;;;;5014577;28;20026;-72
2021/05/19 03:49:39;;;;;;;2.53;1.35;;;14.90;55.00;;;;;;5014362;28;20208;-71
2021/05/19 03:52:05;;;;;;;0.80;0.77;;;14.90;55.10;;;;;;5014546;28;20053;-72
2021/05/19 03:54:34;;;;;;;1.45;0.73;;;14.90;55.00;;;;;;5014367;28;20049;-71
2021/05/19 03:57:04;;;;;;;0.75;0.50;;;14.90;55.00;;;;;;5013158;28;20369;-72
2021/05/19 03:59:31;;;;;;;1.15;0.60;;;14.90;55.50;;;;;;5014202;28;20061;-72
2021/05/19 04:01:57;;;;;;;1.13;0.65;;;14.90;55.00;;;;;;5014330;28;20053;-72
2021/05/19 04:04:24;;;;;;;3.13;1.65;;;14.90;55.00;;;;;;5014500;28;20033;-71
2021/05/19 04:06:49;;;;;;;1.65;0.80;;;14.90;55.00;;;;;;5014147;28;20026;-70
2021/05/19 04:09:15;;;;;;;1.48;0.80;;;14.90;55.10;;;;;;5014181;28;20075;-71
2021/05/19 04:11:42;;;;;;;1.67;1.00;;;14.90;55.10;;;;;;5014095;28;20018;-72
2021/05/19 04:14:08;;;;;;;5.05;0.70;;;14.90;55.20;;;;;;5013945;28;20057;-71
2021/05/19 04:16:33;;;;;;;0.80;0.57;;;14.90;55.10;;;;;;5014089;28;20033;-71
2021/05/19 04:18:59;;;;;;;1.35;0.70;;;15.00;55.10;;;;;;5014087;28;20435;-73
2021/05/19 04:21:26;;;;;;;1.77;0.88;;;15.00;55.20;;;;;;5013967;28;20553;-70
2021/05/19 04:23:51;;;;;;;4.25;1.02;;;15.00;55.20;;;;;;5012853;28;20040;-71
2021/05/19 04:26:18;;;;;;;2.42;0.75;;;15.00;55.20;;;;;;5013939;28;20479;-70
2021/05/19 04:28:46;;;;;;;1.33;0.73;;;15.00;55.20;;;;;;5013879;28;20103;-73
2021/05/19 04:31:12;;;;;;;2.08;0.90;;;15.00;55.20;;;;;;5013743;28;20025;-70
2021/05/19 04:33:38;;;;;;;2.03;1.02;;;15.00;55.20;;;;;;5014147;28;20026;-71
2021/05/19 04:36:04;;;;;;;1.90;0.70;;;15.00;55.20;;;;;;5019974;28;20022;-71
2021/05/19 04:38:30;;;;;;;2.75;1.02;;;15.10;55.20;;;;;;5033458;28;20569;-72
2021/05/19 04:40:56;;;;;;;2.55;1.23;;;15.10;55.10;;;;;;5033398;28;20029;-71
2021/05/19 04:43:22;;;;;;;2.50;1.08;;;15.10;55.00;;;;;;5032302;28;20414;-72
2021/05/19 04:45:48;;;;;;;3.17;1.20;;;15.20;55.10;;;;;;5033284;28;20079;-71
2021/05/19 04:48:14;;;;;;;7.32;1.17;;;15.20;55.00;;;;;;5033252;28;20389;-71
2021/05/19 04:50:40;;;;;;;2.33;0.93;;;15.20;54.90;;;;;;5031796;28;20085;-71
2021/05/19 04:53:07;;;;;;;5.70;1.30;;;15.30;54.90;;;;;;5031482;28;20022;-72
2021/05/19 04:55:33;;;;;;;2.10;0.93;;;15.30;54.90;;;;;;5031909;28;20025;-72
2021/05/19 04:57:59;;;;;;;1.30;0.60;;;15.30;54.80;;;;;;5033166;28;20021;-72
2021/05/19 05:00:25;;;;;;;1.13;0.82;;;15.40;54.70;;;;;;5033043;28;20029;-71
2021/05/19 05:02:51;;;;;;;2.50;0.75;;;15.40;54.60;;;;;;5032399;28;20156;-73
2021/05/19 05:05:18;;;;;;;3.38;0.90;;;15.50;54.60;;;;;;5013162;28;20065;-72
2021/05/19 05:07:43;;;;;;;2.60;1.20;;;15.50;54.40;;;;;;5012013;28;20029;-71
2021/05/19 05:10:11;;;;;;;2.38;0.75;;;15.60;54.40;;;;;;5013155;28;20018;-72
2021/05/19 05:12:37;;;;;;;1.65;0.90;;;15.60;54.40;;;;;;5013113;28;20054;-72
2021/05/19 05:15:05;;;;;;;2.15;0.90;;;15.70;54.30;;;;;;5013237;28;20028;-71
2021/05/19 05:17:31;;;;;;;1.70;0.90;;;15.70;54.10;;;;;;5013269;28;20034;-71
2021/05/19 05:19:57;;;;;;;1.15;0.80;;;15.80;54.00;;;;;;5013175;28;20034;-70
2021/05/19 05:22:23;;;;;;;2.47;0.70;;;15.90;53.90;;;;;;5012925;28;20030;-72
2021/05/19 05:24:48;;;;;;;3.47;0.85;;;15.90;53.90;;;;;;5013167;28;20026;-72
2021/05/19 05:27:14;;;;;;;5.25;0.93;;;15.90;53.70;;;;;;5014965;28;20084;-71
2021/05/19 05:29:40;;;;;;;2.78;0.90;;;16.00;53.60;;;;;;5017179;28;20053;-70
2021/05/19 05:32:07;;;;;;;1.42;0.90;;;16.00;53.50;;;;;;5016951;28;20017;-72
2021/05/19 05:34:34;;;;;;;6.13;1.02;;;16.00;53.40;;;;;;5016076;28;20057;-71
2021/05/19 05:37:00;;;;;;;4.47;0.90;;;16.00;53.20;;;;;;5017075;28;20101;-71
2021/05/19 05:39:26;;;;;;;2.50;1.05;;;16.00;53.20;;;;;;5016926;28;20443;-72
2021/05/19 05:41:52;;;;;;;4.97;1.15;;;16.00;53.30;;;;;;5016717;28;20105;-72
2021/05/19 05:44:18;;;;;;;5.80;1.10;;;16.00;53.40;;;;;;5016767;28;20026;-71
2021/05/19 05:46:44;;;;;;;2.28;1.02;;;16.00;53.30;;;;;;5016801;28;20073;-71
2021/05/19 05:49:10;;;;;;;10.07;0.90;;;16.00;53.40;;;;;;5015412;28;20127;-70
2021/05/19 05:51:36;;;;;;;1.27;0.90;;;16.10;53.60;;;;;;5016714;28;20038;-72
2021/05/19 05:54:02;;;;;;;4.65;0.90;;;16.10;53.50;;;;;;5033079;28;20160;-72
2021/05/19 05:56:28;;;;;;;2.15;1.10;;;16.10;53.50;;;;;;5036029;28;20040;-73
2021/05/19 05:58:53;;;;;;;1.40;0.80;;;16.20;53.50;;;;;;5036065;28;20026;-71
2021/05/19 06:01:19;;;;;;;6.00;0.98;;;16.20;53.50;;;;;;5015475;28;20026;-71
2021/05/19 06:03:45;;;;;;;1.90;1.15;;;16.30;53.60;;;;;;5014369;28;20472;-72
2021/05/19 06:06:11;;;;;;;1.73;0.95;;;16.40;53.40;;;;;;5015228;28;20064;-73
2021/05/19 06:08:37;;;;;;;1.48;1.10;;;16.40;53.20;;;;;;5015216;28;20088;-71
2021/05/19 06:11:07;;;;;;;4.10;0.98;;;16.40;53.10;;;;;;5015248;28;20100;-72
2021/05/19 06:13:33;;;;;;;3.85;1.13;;;16.40;53.10;;;;;;5013296;28;20033;-71
2021/05/19 06:15:59;;;;;;;3.00;1.02;;;16.40;53.10;;;;;;5013749;28;20037;-72
2021/05/19 06:18:25;;;;;;;1.88;1.20;;;16.50;53.10;;;;;;5015523;28;20395;-71
2021/05/19 06:20:52;;;;;;;4.00;1.30;;;16.50;53.10;;;;;;5014060;28;20053;-72
2021/05/19 06:23:17;;;;;;;1.20;0.90;;;16.50;53.80;;;;;;5015212;28;20084;-71
2021/05/19 06:25:43;;;;;;;1.92;1.20;;;16.60;53.20;;;;;;5015796;28;20034;-70
2021/05/19 06:28:09;;;;;;;3.08;1.30;;;16.70;53.20;;;;;;5025126;28;20030;-72
2021/05/19 06:30:35;;;;;;;3.20;1.40;;;16.80;53.10;;;;;;5015182;28;20083;-73
2021/05/19 06:33:01;;;;;;;3.63;1.60;;;16.90;53.00;;;;;;5015353;28;20030;-74
2021/05/19 06:35:27;;;;;;;2.13;1.10;;;17.00;52.80;;;;;;5028456;28;20026;-73
2021/05/19 06:37:54;;;;;;;2.90;1.38;;;17.10;52.60;;;;;;5014222;28;20057;-73
2021/05/19 06:40:20;;;;;;;2.03;1.30;;;17.30;52.10;;;;;;5014739;28;20116;-72
2021/05/19 06:42:47;;;;;;;2.90;1.52;;;17.40;51.90;;;;;;5015135;28;20072;-70
2021/05/19 06:45:13;;;;;;;3.65;2.08;;;17.60;51.70;;;;;;5015073;28;20061;-73
2021/05/19 06:47:39;;;;;;;3.50;1.90;;;17.70;51.40;;;;;;5030048;28;20026;-72
2021/05/19 06:50:05;;;;;;;2.88;1.63;;;17.90;50.70;;;;;;5014841;28;20437;-72
2021/05/19 06:52:31;;;;;;;2.10;1.38;;;17.90;50.10;;;;;;5014937;28;20029;-73
2021/05/19 06:54:57;;;;;;;2.22;1.70;;;18.00;49.50;;;;;;5024304;28;20018;-72
2021/05/19 06:57:23;;;;;;;2.80;1.58;;;18.00;48.70;;;;;;5022851;28;20037;-72
2021/05/19 06:59:51;;;;;;;3.22;1.77;;;18.00;48.40;;;;;;5034420;28;20032;-73
2021/05/19 07:02:17;;;;;;;5.85;1.88;;;18.00;48.20;;;;;;5034307;28;20108;-71
2021/05/19 07:04:43;;;;;;;1.63;1.33;;;18.10;48.20;;;;;;5033595;28;20111;-70
2021/05/19 07:07:08;;;;;;;4.10;1.50;;;18.10;48.30;;;;;;5020426;28;20029;-73
2021/05/19 07:09:35;;;;;;;3.08;1.55;;;18.20;48.60;;;;;;5034252;28;20037;-72
2021/05/19 07:12:01;;;;;;;4.00;1.77;;;18.20;48.50;;;;;;5019463;28;20014;-72
2021/05/19 07:14:27;;;;;;;5.22;1.50;;;18.30;48.00;;;;;;5013519;28;20105;-70
2021/05/19 07:16:54;;;;;;;2.67;1.80;;;18.30;47.80;;;;;;5022064;28;20036;-72
2021/05/19 07:19:23;;;;;;;2.25;1.50;;;18.30;47.20;;;;;;5034795;28;20017;-71
2021/05/19 07:21:51;;;;;;;2.33;1.20;;;18.30;47.40;;;;;;5034778;28;20479;-73
2021/05/19 07:24:17;;;;;;;4.57;1.73;;;18.30;47.30;;;;;;5031406;28;20475;-73
2021/05/19 07:26:46;;;;;;;3.35;1.52;;;18.30;47.10;;;;;;5032052;28;20035;-71
2021/05/19 07:29:13;;;;;;;4.47;1.55;;;18.30;47.30;;;;;;5014001;28;20033;-71
2021/05/19 07:31:41;;;;;;;1.33;1.20;;;18.30;47.50;;;;;;5013955;28;20034;-72
2021/05/19 07:34:08;;;;;;;3.10;1.40;;;18.30;47.70;;;;;;5019542;28;20174;-73
2021/05/19 07:36:34;;;;;;;2.60;1.75;;;18.40;47.70;;;;;;5028876;28;20506;-72
2021/05/19 07:39:00;;;;;;;3.35;1.40;;;18.40;47.60;;;;;;5033348;28;20026;-72
2021/05/19 07:41:27;;;;;;;1.45;1.20;;;18.50;47.20;;;;;;5031844;28;20029;-73
2021/05/19 07:43:53;;;;;;;2.30;1.40;;;18.60;47.10;;;;;;5033374;28;20026;-72
2021/05/19 07:46:19;;;;;;;2.22;1.50;;;18.60;47.10;;;;;;5033230;28;20040;-70
2021/05/19 07:48:45;;;;;;;6.57;1.45;;;18.70;46.60;;;;;;5033307;28;20024;-72
2021/05/19 07:51:11;;;;;;;2.28;1.80;;;18.70;46.30;;;;;;5030989;28;20041;-71
2021/05/19 07:53:37;;;;;;;1.70;1.40;;;18.70;46.40;;;;;;5033143;28;20108;-72
2021/05/19 07:56:40;;;;;;;2.30;1.10;;;18.80;46.60;;;;;;5032661;28;20530;-70
2021/05/19 07:59:06;;;;;;;4.70;1.50;;;18.90;46.30;;;;;;5033196;28;20094;-71
2021/05/19 08:03:58;;;;;;;4.13;1.60;;;19.20;45.40;;;;;;5016935;28;20028;-70
2021/05/19 08:06:24;;;;;;;3.72;1.55;;;19.30;45.10;;;;;;5014343;28;20029;-69
2021/05/19 08:08:49;;;;;;;2.90;1.83;;;19.40;44.70;;;;;;5033995;28;20448;-70
2021/05/19 08:11:16;;;;;;;2.45;1.25;;;19.50;44.90;;;;;;5034032;28;20486;-72
2021/05/19 08:13:46;;;;;;;3.65;1.20;;;19.70;45.20;;;;;;5029114;28;21460;-66
2021/05/19 08:16:13;;;;;;;2.22;1.60;;;19.80;44.50;;;;;;5024809;28;20103;-67
2021/05/19 08:18:39;;;;;;;1.92;1.48;;;19.90;43.70;;;;;;5017304;28;20495;-65
2021/05/19 08:21:05;;;;;;;1.60;1.23;;;19.90;43.50;;;;;;5015489;28;20034;-66
2021/05/19 08:23:31;;;;;;;2.45;1.30;;;19.90;43.20;;;;;;5020241;28;20022;-67
2021/05/19 08:25:57;;;;;;;2.15;1.33;;;20.00;43.20;;;;;;5039793;28;20074;-66
2021/05/19 08:28:23;;;;;;;1.88;1.23;;;20.10;42.90;;;;;;5039993;28;20042;-65
2021/05/19 08:30:49;;;;;;;2.50;1.05;;;20.10;43.10;;;;;;5028067;28;20378;-66
2021/05/19 08:33:15;;;;;;;2.33;1.10;;;20.20;42.90;;;;;;5015466;28;20026;-66
2021/05/19 08:35:41;;;;;;;2.97;1.20;;;20.30;42.80;;;;;;5032643;28;20026;-67
2021/05/19 08:38:07;;;;;;;1.45;0.90;;;20.30;42.50;;;;;;5033307;28;20056;-65
2021/05/19 08:40:33;;;;;;;1.05;0.95;;;20.40;42.40;;;;;;5033225;28;20025;-66
2021/05/19 08:42:59;;;;;;;1.38;1.00;;;20.50;42.00;;;;;;5033177;28;20082;-67
2021/05/19 08:45:25;;;;;;;2.88;1.30;;;20.60;42.00;;;;;;5031645;28;20037;-65
2021/05/19 08:48:00;;;;;;;3.58;1.27;;;20.70;41.40;;;;;;5029749;28;20065;-68
2021/05/19 08:50:26;;;;;;;4.95;1.50;;;20.80;41.10;;;;;;5013898;28;20038;-66
2021/05/19 08:52:52;;;;;;;2.20;1.60;;;20.80;40.70;;;;;;5013808;28;20156;-67
2021/05/19 08:55:18;;;;;;;1.70;1.20;;;20.80;40.20;;;;;;5018914;28;20040;-70
2021/05/19 08:57:46;;;;;;;2.53;1.45;;;20.80;40.50;;;;;;5032346;28;20100;-71
2021/05/19 09:00:12;;;;;;;2.70;1.73;;;20.90;40.80;;;;;;5031764;28;20026;-71
2021/05/19 09:02:38;;;;;;;4.70;2.13;;;20.90;39.40;;;;;;5030683;28;20052;-70
2021/05/19 09:05:06;;;;;;;8.13;2.58;;;21.00;40.00;;;;;;5013308;28;20484;-71
2021/05/19 09:07:34;;;;;;;3.30;1.80;;;21.10;39.60;;;;;;5012728;28;20113;-70
2021/05/19 09:10:15;;;;;;;2.00;1.63;;;21.20;39.50;;;;;;5026270;28;20052;-71
2021/05/19 09:12:40;;;;;;;5.75;1.48;;;21.30;39.40;;;;;;5032824;28;20034;-71
2021/05/19 09:15:07;;;;;;;3.40;1.52;;;21.50;38.90;;;;;;5033049;28;20083;-70
2021/05/19 09:17:35;;;;;;;3.33;1.90;;;21.60;38.50;;;;;;5032975;28;20372;-70
2021/05/19 09:20:05;;;;;;;3.17;1.75;;;21.60;37.60;;;;;;5032554;28;20476;-71
2021/05/19 09:22:39;;;;;;;2.95;1.70;;;21.60;37.20;;;;;;5032774;28;20029;-71
2021/05/19 09:25:32;;;;;;;2.80;1.50;;;21.60;37.10;;;;;;5023389;28;20060;-71
2021/05/19 09:28:02;;;;;;;3.20;1.50;;;21.50;37.30;;;;;;5026436;28;20048;-70
2021/05/19 09:30:58;;;;;;;2.95;1.83;;;21.60;37.30;;;;;;5024017;28;20030;-71
2021/05/19 09:33:27;;;;;;;3.38;1.67;;;21.70;38.10;;;;;;5016421;28;20040;-71
2021/05/19 09:36:16;;;;;;;2.92;1.60;;;21.70;37.00;;;;;;5011875;28;20427;-71
2021/05/19 09:38:45;;;;;;;8.70;2.03;;;21.80;37.00;;;;;;5018971;28;20029;-70
2021/05/19 09:41:28;;;;;;;3.28;1.67;;;21.80;36.20;;;;;;5025951;28;20399;-70
2021/05/19 09:43:57;;;;;;;2.75;1.58;;;21.80;36.70;;;;;;5029355;28;20434;-71
2021/05/19 09:49:19;;;;;;;2.40;1.50;;;21.90;35.80;;;;;;5018870;28;20056;-71
2021/05/19 09:51:49;;;;;;;2.85;1.92;;;21.90;36.20;;;;;;5017174;28;20046;-72
2021/05/19 09:54:33;;;;;;;2.10;1.65;;;22.00;36.80;;;;;;5043276;28;20025;-71
2021/05/19 09:57:00;;;;;;;;;;;22.10;35.80;;;;;;5048146;28;20025;-71
2021/05/19 09:59:25;;;;;;;8.27;1.55;;;22.20;37.20;;;;;;5038331;28;20003;-71
2021/05/19 10:01:52;;;;;;;7.22;1.60;;;22.20;36.00;;;;;;5036614;28;20119;-71
2021/05/19 10:04:21;;;;;;;6.57;1.60;;;22.30;35.50;;;;;;5033248;28;20536;-71
2021/05/19 10:06:48;;;;;;;5.95;1.70;;;22.40;35.10;;;;;;5031423;28;20061;-70
2021/05/19 10:09:15;;;;;;;2.15;1.55;;;22.50;34.90;;;;;;5031908;28;20010;-71
2021/05/19 10:11:42;;;;;;;5.07;1.70;;;22.50;35.10;;;;;;5034778;28;20057;-71
2021/05/19 10:14:10;;;;;;;5.97;1.70;;;22.50;34.60;;;;;;5033240;28;20383;-70
2021/05/19 10:16:44;;;;;;;4.60;1.75;;;22.60;34.10;;;;;;5051201;28;20059;-71
2021/05/19 10:19:18;;;;;;;2.10;1.23;;;22.50;33.60;;;;;;5035264;28;20017;-71
2021/05/19 10:21:46;;;;;;;3.28;1.70;;;22.50;33.20;;;;;;5042184;28;20114;-71
2021/05/19 10:24:13;;;;;;;2.80;1.42;;;22.40;33.50;;;;;;5041448;28;20443;-71
2021/05/19 10:27:14;;;;;;;2.13;1.20;;;22.40;34.20;;;;;;5048169;28;20448;-71
2021/05/19 10:29:46;;;;;;;2.38;1.50;;;22.30;34.80;;;;;;5060235;28;20111;-71
2021/05/19 10:32:21;;;;;;;36.22;4.28;;;22.20;33.90;;;;;;5059200;28;20043;-68
2021/05/19 10:34:50;;;;;;;3.33;1.85;;;21.80;49.50;;;;;;5055573;28;20029;-70
2021/05/19 10:37:36;;;;;;;3.42;2.10;;;21.50;53.60;;;;;;5055930;28;20028;-69
2021/05/19 10:40:08;;;;;;;2.72;1.60;;;20.90;53.60;;;;;;5071729;28;20040;-69
2021/05/19 10:42:41;;;;;;;2.13;1.38;;;20.30;55.20;;;;;;5068853;28;20064;-70
2021/05/19 10:45:11;;;;;;;1.55;1.33;;;19.90;57.60;;;;;;5066443;28;20433;-69
2021/05/19 10:47:37;;;;;;;3.15;1.63;;;19.50;59.60;;;;;;5071806;28;20117;-69
2021/05/19 10:50:19;;;;;;;1.83;1.40;;;19.20;60.60;;;;;;5056551;28;20559;-70
2021/05/19 10:58:53;;;;;;;1.50;1.40;;;18.80;64.90;;;;;;5052859;28;20091;-69
2021/05/19 11:01:37;;;;;;;1.92;1.48;;;18.80;62.80;;;;;;5052876;28;20519;-69
2021/05/19 11:04:26;;;;;;;3.47;2.42;;;18.80;62.40;;;;;;5055884;28;20037;-69
2021/05/19 11:07:01;;;;;;;3.35;2.10;;;18.70;59.10;;;;;;5034578;28;20026;-69
2021/05/19 11:09:29;;;;;;;2.78;1.83;;;18.70;58.90;;;;;;5026936;28;20531;-69
2021/05/19 11:12:17;;;;;;;3.13;1.88;;;18.70;58.90;;;;;;5013537;28;20018;-69
2021/05/19 11:14:49;;;;;;;2.47;1.70;;;18.80;58.40;;;;;;5015004;28;20388;-69
2021/05/19 11:17:25;;;;;;;3.83;1.85;;;18.90;56.60;;;;;;5015007;28;20026;-69
2021/05/19 11:19:51;;;;;;;2.45;1.98;;;19.00;56.80;;;;;;5019344;28;20022;-69
2021/05/19 11:22:17;;;;;;;2.97;1.90;;;19.30;55.50;;;;;;5034526;28;20091;-69
2021/05/19 11:24:57;;;;;;;4.32;1.77;;;19.50;55.70;;;;;;5025887;28;20034;-69
2021/05/19 11:27:32;;;;;;;3.00;1.48;;;19.70;53.30;;;;;;5014649;28;20049;-69
2021/05/19 11:29:58;;;;;;;2.30;1.05;;;19.80;50.20;;;;;;5014701;28;20025;-70
2021/05/19 11:32:30;;;;;;;2.70;0.85;;;19.90;49.20;;;;;;5030416;28;20103;-70
2021/05/19 11:35:18;;;;;;;1.30;0.77;;;19.90;47.20;;;;;;5042347;28;20029;-69
2021/05/19 11:38:02;;;;;;;1.08;0.75;;;19.80;45.70;;;;;;5026697;28;20045;-69
2021/05/19 11:40:42;;;;;;;0.75;0.47;;;19.70;45.20;;;;;;5015078;28;20109;-69
2021/05/19 11:43:10;;;;;;;6.28;0.77;;;19.70;46.20;;;;;;5014896;28;20120;-69
2021/05/19 11:45:36;;;;;;;1.58;0.70;;;19.70;45.60;;;;;;5033741;28;20025;-69
2021/05/19 11:48:02;;;;;;;2.17;0.63;;;19.80;47.10;;;;;;5033292;28;20478;-70
2021/05/19 11:50:32;;;;;;;0.50;0.45;;;19.80;46.10;;;;;;5019515;28;20074;-69
2021/05/19 11:53:10;;;;;;;3.47;0.75;;;19.90;46.50;;;;;;5013393;28;20467;-69
2021/05/19 11:55:46;;;;;;;0.70;0.70;;;20.00;44.20;;;;;;5037067;28;20054;-70
2021/05/19 11:58:27;;;;;;;1.88;0.88;;;20.00;44.00;;;;;;5021057;28;20475;-70
2021/05/19 12:01:04;;;;;;;1.75;1.17;;;20.20;45.90;;;;;;5014330;28;20036;-68
2021/05/19 12:03:31;;;;;;;4.75;1.50;;;20.30;45.70;;;;;;5022857;28;20442;-70
2021/05/19 12:06:03;;;;;;;1.38;1.02;;;20.40;44.20;;;;;;5030676;28;20060;-70
2021/05/19 12:08:37;;;;;;;3.00;1.75;;;20.50;46.30;;;;;;5033836;28;20475;-70
2021/05/19 12:11:06;;;;;;;4.20;1.47;;;20.70;44.60;;;;;;5029685;28;20434;-70
2021/05/19 12:13:35;;;;;;;2.08;1.45;;;20.80;44.40;;;;;;5017546;28;20304;-70
2021/05/19 12:16:02;;;;;;;3.10;1.98;;;20.90;45.30;;;;;;5013600;28;20018;-70
2021/05/19 12:18:28;;;;;;;2.30;1.80;;;21.00;43.40;;;;;;5028333;28;20032;-70
2021/05/19 12:20:53;;;;;;;1.50;1.40;;;21.00;43.30;;;;;;5025388;28;20395;-70
2021/05/19 12:23:19;;;;;;;2.97;1.70;;;21.00;44.30;;;;;;5022412;28;20033;-70
2021/05/19 12:25:46;;;;;;;4.28;1.80;;;21.10;44.70;;;;;;5024661;28;20034;-70
2021/05/19 12:28:24;;;;;;;3.22;1.83;;;21.20;44.20;;;;;;5029088;28;20034;-70
2021/05/19 12:30:58;;;;;;;2.38;1.65;;;21.30;44.50;;;;;;5013911;28;20076;-70
2021/05/19 12:33:35;;;;;;;2.03;1.58;;;21.30;43.60;;;;;;5014708;28;20108;-70
2021/05/19 12:36:01;;;;;;;2.80;1.85;;;21.40;43.80;;;;;;5024594;28;20029;-70
2021/05/19 12:38:27;;;;;;;5.60;1.85;;;21.30;41.80;;;;;;5013364;28;20383;-70
2021/05/19 12:40:55;;;;;;;2.22;1.70;;;21.30;43.60;;;;;;5013649;28;20030;-70
2021/05/19 12:43:26;;;;;;;2.38;1.60;;;21.30;43.80;;;;;;5013647;28;20052;-70
2021/05/19 12:45:53;;;;;;;2.15;1.52;;;21.30;43.70;;;;;;5013789;28;20491;-70
2021/05/19 12:48:22;;;;;;;3.33;1.23;;;21.40;42.30;;;;;;5012074;28;20030;-70
2021/05/19 12:50:59;;;;;;;1.90;1.20;;;21.40;43.80;;;;;;5013430;28;20065;-70
2021/05/19 12:53:35;;;;;;;1.92;1.10;;;21.50;42.80;;;;;;5013619;28;20411;-70
2021/05/19 12:56:10;;;;;;;1.65;1.27;;;21.60;41.40;;;;;;5028126;28;20025;-70
2021/05/19 12:58:59;;;;;;;2.28;1.42;;;21.60;40.10;;;;;;5020113;28;20026;-71
2021/05/19 13:01:28;;;;;;;1.63;1.08;;;21.60;40.00;;;;;;5013836;28;20026;-71
2021/05/19 13:03:54;;;;;;;2.40;1.42;;;21.60;39.40;;;;;;5013300;28;20108;-70
2021/05/19 13:06:26;;;;;;;1.63;1.23;;;21.50;40.40;;;;;;5013445;28;20036;-70